createdAt,value
2022-10-17T00:00:39.803Z,42.95
2022-10-17T00:02:41.432Z,49.65
2022-10-17T00:04:42.901Z,43.55
2022-10-17T00:06:44.456Z,41.92
2022-10-17T00:08:46.345Z,39.80
2022-10-17T00:10:59.867Z,41.78
2022-10-17T00:13:01.618Z,42.42
2022-10-17T00:15:05.539Z,43.40
2022-10-17T00:17:07.008Z,46.08
2022-10-17T00:19:08.641Z,43.58
2022-10-17T00:21:18.021Z,41.28
2022-10-17T00:23:19.525Z,53.47
2022-10-17T00:25:21.059Z,50.03
2022-10-17T00:27:22.516Z,46.08
2022-10-17T00:29:24.026Z,48.15
2022-10-17T00:31:26.008Z,48.38
2022-10-17T00:33:28.659Z,49.80
2022-10-17T00:35:30.141Z,42.92
2022-10-17T00:37:32.718Z,47.20
2022-10-17T00:39:34.193Z,42.70
2022-10-17T00:41:35.704Z,47.35
2022-10-17T00:43:52.293Z,48.78
2022-10-17T00:45:53.824Z,44.97
2022-10-17T00:47:59.863Z,45.47
2022-10-17T00:52:11.731Z,40.38
2022-10-17T00:54:16.290Z,41.28
2022-10-17T00:56:20.893Z,44.45
2022-10-17T00:58:22.593Z,42.28
2022-10-17T01:00:24.823Z,44.40
2022-10-17T01:02:26.597Z,46.58
2022-10-17T01:04:28.380Z,41.80
2022-10-17T01:06:29.858Z,44.30
2022-10-17T01:08:31.583Z,45.03
2022-10-17T01:11:03.889Z,44.15
2022-10-17T01:13:17.648Z,47.80
2022-10-17T01:15:48.649Z,45.28
2022-10-17T01:17:58.638Z,45.15
2022-10-17T01:20:37.299Z,44.38
2022-10-17T01:22:49.625Z,47.05
2022-10-17T01:25:43.015Z,53.47
2022-10-17T01:28:04.685Z,48.10
2022-10-17T01:30:11.973Z,47.67
2022-10-17T01:32:20.540Z,49.25
2022-10-17T01:34:45.296Z,49.25
2022-10-17T01:37:00.384Z,56.50
2022-10-17T01:39:22.201Z,48.38
2022-10-17T01:41:42.265Z,51.67
2022-10-17T01:43:58.880Z,48.97
2022-10-17T01:46:12.476Z,51.70
2022-10-17T01:48:37.532Z,51.50
2022-10-17T01:50:45.509Z,53.28
2022-10-17T01:53:05.084Z,57.88
2022-10-17T01:55:12.223Z,55.20
2022-10-17T01:57:29.888Z,56.03
2022-10-17T01:59:40.104Z,47.03
2022-10-17T02:03:46.152Z,56.92
2022-10-17T02:05:48.129Z,58.88
2022-10-17T02:07:49.607Z,56.78
2022-10-17T02:09:51.319Z,53.97
2022-10-17T02:12:29.796Z,45.95
2022-10-17T02:14:49.776Z,53.70
2022-10-17T02:17:09.183Z,52.22
2022-10-17T02:19:51.529Z,60.72
2022-10-17T02:22:16.514Z,63.35
2022-10-17T02:24:27.197Z,58.63
2022-10-17T02:26:35.459Z,55.03
2022-10-17T02:29:05.380Z,63.38
2022-10-17T02:33:21.839Z,53.30
2022-10-17T02:35:27.504Z,59.40
2022-10-17T02:37:30.965Z,49.00
2022-10-17T02:39:34.908Z,57.95
2022-10-17T02:41:38.452Z,56.88
2022-10-17T02:43:40.587Z,57.20
2022-10-17T02:45:42.118Z,52.53
2022-10-17T02:47:56.110Z,49.78
2022-10-17T02:49:58.854Z,60.53
2022-10-17T02:52:23.274Z,56.10
2022-10-17T02:54:35.874Z,61.22
2022-10-17T02:56:42.841Z,58.40
2022-10-17T02:58:50.176Z,53.45
2022-10-17T03:00:52.822Z,52.53
2022-10-17T03:02:54.829Z,53.08
2022-10-17T03:04:56.842Z,46.50
2022-10-17T03:06:58.349Z,45.67
2022-10-17T03:08:59.892Z,49.42
2022-10-17T03:11:01.523Z,46.03
2022-10-17T03:13:03.048Z,56.70
2022-10-17T03:15:05.223Z,61.53
2022-10-17T03:17:06.717Z,47.88
2022-10-17T03:19:08.852Z,58.05
2022-10-17T03:21:10.318Z,54.13
2022-10-17T03:23:11.839Z,56.08
2022-10-17T03:25:13.398Z,46.97
2022-10-17T03:27:14.857Z,44.63
2022-10-17T03:29:16.427Z,42.47
2022-10-17T03:31:17.905Z,44.42
2022-10-17T03:33:19.399Z,41.97
2022-10-17T03:35:20.944Z,41.90
2022-10-17T03:37:22.409Z,48.47
2022-10-17T03:39:24.134Z,41.15
2022-10-17T03:41:25.691Z,41.35
2022-10-17T03:43:27.193Z,42.50
2022-10-17T03:45:28.775Z,40.75
2022-10-17T03:47:30.757Z,43.45
2022-10-17T03:49:32.477Z,49.10
2022-10-17T03:51:35.109Z,43.67
2022-10-17T03:53:36.640Z,48.25
2022-10-17T03:55:38.103Z,47.10
2022-10-17T03:57:42.151Z,42.53
2022-10-17T03:59:46.264Z,46.40
2022-10-17T04:01:47.793Z,35.70
2022-10-17T04:03:54.516Z,40.42
2022-10-17T04:06:00.074Z,39.70
2022-10-17T04:08:03.990Z,42.90
2022-10-17T04:10:06.956Z,41.50
2022-10-17T04:12:08.503Z,38.90
2022-10-17T04:14:10.816Z,38.92
2022-10-17T04:16:16.351Z,44.05
2022-10-17T04:18:17.830Z,50.95
2022-10-17T04:20:19.372Z,43.65
2022-10-17T04:22:20.911Z,45.75
2022-10-17T04:24:22.646Z,39.30
2022-10-17T04:26:24.240Z,43.40
2022-10-17T04:28:27.340Z,46.78
2022-10-17T04:30:29.069Z,46.25
2022-10-17T04:32:30.802Z,39.53
2022-10-17T04:34:32.672Z,49.53
2022-10-17T04:36:34.201Z,43.53
2022-10-17T04:38:35.774Z,45.28
2022-10-17T04:40:37.265Z,45.80
2022-10-17T04:42:38.810Z,45.38
2022-10-17T04:44:40.830Z,50.45
2022-10-17T04:46:42.444Z,42.67
2022-10-17T04:48:43.962Z,41.00
2022-10-17T04:51:16.674Z,47.75
2022-10-17T04:53:18.151Z,40.33
2022-10-17T04:55:19.633Z,43.88
2022-10-17T04:57:21.317Z,45.58
2022-10-17T04:59:22.831Z,46.17
2022-10-17T05:01:24.395Z,45.17
2022-10-17T05:03:25.865Z,56.50
2022-10-17T05:05:27.761Z,50.00
2022-10-17T05:07:29.253Z,49.17
2022-10-17T05:09:30.716Z,47.38
2022-10-17T05:11:32.259Z,47.28
2022-10-17T05:13:33.799Z,51.13
2022-10-17T05:15:36.145Z,85.97
2022-10-17T05:17:37.595Z,59.22
2022-10-17T05:19:39.479Z,83.65
2022-10-17T05:21:41.179Z,67.43
2022-10-17T05:23:42.888Z,54.00
2022-10-17T05:25:44.404Z,80.95
2022-10-17T05:27:46.567Z,52.72
2022-10-17T05:29:48.121Z,49.15
2022-10-17T05:31:49.646Z,75.00
2022-10-17T05:33:51.181Z,48.67
2022-10-17T05:35:52.678Z,52.15
2022-10-17T05:37:54.205Z,47.15
2022-10-17T05:39:55.694Z,61.00
2022-10-17T05:41:57.436Z,83.35
2022-10-17T05:44:01.769Z,83.68
2022-10-17T05:46:07.078Z,60.33
2022-10-17T05:48:09.162Z,78.22
2022-10-17T05:50:10.941Z,72.95
2022-10-17T05:52:12.504Z,72.68
2022-10-17T05:54:13.945Z,51.35
2022-10-17T05:56:15.503Z,47.38
2022-10-17T05:58:21.997Z,40.47
2022-10-17T06:00:24.010Z,39.90
2022-10-17T06:02:26.643Z,44.00
2022-10-17T06:04:28.928Z,42.63
2022-10-17T06:06:30.410Z,32.40
2022-10-17T06:08:31.966Z,38.25
2022-10-17T06:10:33.503Z,40.20
2022-10-17T06:12:35.058Z,59.90
2022-10-17T06:14:36.584Z,49.88
2022-10-17T06:16:38.087Z,37.22
2022-10-17T06:18:39.806Z,40.60
2022-10-17T06:20:45.283Z,32.08
2022-10-17T06:22:47.648Z,38.28
2022-10-17T06:24:49.351Z,32.65
2022-10-17T06:26:51.210Z,34.67
2022-10-17T06:28:54.495Z,32.53
2022-10-17T06:30:56.016Z,38.10
2022-10-17T06:32:57.549Z,34.50
2022-10-17T06:34:59.278Z,38.65
2022-10-17T06:37:00.811Z,49.97
2022-10-17T06:39:02.478Z,43.75
2022-10-17T06:41:08.415Z,39.97
2022-10-17T06:43:10.005Z,34.05
2022-10-17T06:45:11.584Z,33.25
2022-10-17T06:47:16.538Z,28.10
2022-10-17T06:49:20.782Z,31.65
2022-10-17T06:51:22.224Z,33.63
2022-10-17T06:53:25.111Z,32.05
2022-10-17T06:55:26.612Z,26.90
2022-10-17T06:57:28.359Z,33.78
2022-10-17T06:59:30.085Z,29.98
2022-10-17T07:01:32.329Z,28.15
2022-10-17T07:03:34.178Z,26.40
2022-10-17T07:05:35.663Z,28.13
2022-10-17T07:07:40.152Z,24.85
2022-10-17T07:09:44.650Z,23.80
2022-10-17T07:11:46.162Z,26.10
2022-10-17T07:13:48.158Z,24.02
2022-10-17T07:15:49.753Z,24.38
2022-10-17T07:17:51.277Z,24.38
2022-10-17T07:19:52.796Z,21.45
2022-10-17T07:21:54.546Z,20.45
2022-10-17T07:23:56.204Z,25.00
2022-10-17T07:26:02.443Z,21.17
2022-10-17T07:28:04.148Z,24.95
2022-10-17T07:30:06.684Z,24.00
2022-10-17T07:32:08.709Z,23.30
2022-10-17T07:34:10.268Z,24.05
2022-10-17T07:36:15.328Z,23.13
2022-10-17T07:38:16.921Z,18.30
2022-10-17T07:40:18.574Z,19.75
2022-10-17T07:42:20.074Z,22.20
2022-10-17T07:44:21.537Z,20.38
2022-10-17T07:46:23.272Z,22.75
2022-10-17T07:48:25.291Z,20.98
2022-10-17T07:50:26.772Z,22.60
2022-10-17T07:52:28.422Z,21.65
2022-10-17T07:54:30.096Z,20.77
2022-10-17T07:56:32.165Z,21.98
2022-10-17T07:58:34.832Z,18.27
2022-10-17T08:00:40.294Z,19.88
2022-10-17T08:02:41.826Z,21.95
2022-10-17T08:04:43.259Z,20.90
2022-10-17T08:06:44.735Z,22.67
2022-10-17T08:08:46.204Z,22.27
2022-10-17T08:10:47.686Z,22.98
2022-10-17T08:12:49.284Z,20.20
2022-10-17T08:14:50.738Z,19.27
2022-10-17T08:16:54.668Z,17.92
2022-10-17T08:18:56.169Z,20.98
2022-10-17T08:21:01.553Z,17.92
2022-10-17T08:23:03.105Z,18.35
2022-10-17T08:25:05.146Z,16.73
2022-10-17T08:27:11.483Z,19.40
2022-10-17T08:29:16.744Z,18.10
2022-10-17T08:31:20.014Z,16.40
2022-10-17T08:33:21.471Z,18.80
2022-10-17T08:35:23.816Z,13.77
2022-10-17T08:37:25.416Z,13.00
2022-10-17T08:39:26.849Z,15.60
2022-10-17T08:41:50.305Z,14.23
2022-10-17T08:44:04.913Z,18.38
2022-10-17T08:46:09.079Z,11.63
2022-10-17T08:48:14.579Z,13.90
2022-10-17T08:50:26.823Z,13.07
2022-10-17T08:52:41.481Z,12.32
2022-10-17T08:54:47.856Z,13.18
2022-10-17T08:56:51.241Z,10.05
2022-10-17T08:58:53.247Z,11.52
2022-10-17T09:01:27.978Z,11.43
2022-10-17T09:03:42.172Z,10.30
2022-10-17T09:05:52.508Z,10.18
2022-10-17T09:08:06.494Z,9.32
2022-10-17T09:10:23.654Z,9.77
2022-10-17T09:13:07.616Z,13.80
2022-10-17T09:15:24.994Z,14.23
2022-10-17T09:17:36.422Z,10.75
2022-10-17T09:19:43.395Z,10.60
2022-10-17T09:21:59.671Z,15.60
2022-10-17T09:24:09.365Z,10.80
2022-10-17T09:26:16.847Z,9.43
2022-10-17T09:28:24.462Z,10.35
2022-10-17T09:30:45.802Z,11.90
2022-10-17T09:32:48.301Z,8.65
2022-10-17T09:34:49.991Z,13.02
2022-10-17T09:36:52.232Z,11.93
2022-10-17T09:38:57.128Z,13.10
2022-10-17T09:41:01.137Z,15.98
2022-10-17T09:43:06.736Z,9.85
2022-10-17T09:45:10.991Z,11.82
2022-10-17T09:47:24.305Z,12.93
2022-10-17T09:49:32.475Z,8.93
2022-10-17T09:51:34.023Z,12.38
2022-10-17T09:53:42.378Z,12.70
2022-10-17T09:55:48.754Z,13.95
2022-10-17T09:57:56.041Z,10.25
2022-10-17T10:00:05.038Z,11.45
2022-10-17T10:02:12.604Z,12.45
2022-10-17T10:04:16.384Z,8.30
2022-10-17T10:06:19.983Z,12.40
2022-10-17T10:08:23.472Z,9.30
2022-10-17T10:10:28.538Z,12.02
2022-10-17T10:12:39.229Z,10.30
2022-10-17T10:14:40.959Z,10.93
2022-10-17T10:16:45.069Z,12.40
2022-10-17T10:18:50.092Z,10.95
2022-10-17T10:21:06.511Z,15.95
2022-10-17T10:23:14.310Z,11.10
2022-10-17T10:25:17.694Z,10.55
2022-10-17T10:27:29.447Z,13.00
2022-10-17T10:29:36.725Z,12.20
2022-10-17T10:31:39.913Z,10.73
2022-10-17T10:33:48.083Z,10.18
2022-10-17T10:35:58.760Z,9.75
2022-10-17T10:38:03.875Z,10.60
2022-10-17T10:40:18.619Z,7.85
2022-10-17T10:42:30.417Z,12.07
2022-10-17T10:44:34.086Z,9.27
2022-10-17T10:46:35.569Z,11.77
2022-10-17T10:48:37.422Z,11.40
2022-10-17T10:50:54.044Z,17.35
2022-10-17T10:53:42.175Z,9.02
2022-10-17T10:55:52.138Z,9.63
2022-10-17T10:58:02.831Z,10.45
2022-10-17T11:00:16.649Z,9.13
2022-10-17T11:02:29.973Z,9.25
2022-10-17T11:04:40.934Z,11.57
2022-10-17T11:06:45.510Z,8.23
2022-10-17T11:09:18.356Z,12.70
2022-10-17T11:11:39.910Z,9.13
2022-10-17T11:13:51.844Z,11.00
2022-10-17T11:16:02.025Z,10.43
2022-10-17T11:18:06.904Z,12.50
2022-10-17T11:20:15.263Z,12.70
2022-10-17T11:22:29.308Z,10.73
2022-10-17T11:24:50.205Z,11.43
2022-10-17T11:27:03.855Z,10.65
2022-10-17T11:29:09.089Z,10.32
2022-10-17T11:31:14.855Z,10.70
2022-10-17T11:33:28.337Z,15.32
2022-10-17T11:35:38.376Z,10.27
2022-10-17T11:37:46.009Z,10.55
2022-10-17T11:39:54.850Z,13.38
2022-10-17T11:42:12.163Z,10.15
2022-10-17T11:44:33.012Z,12.70
2022-10-17T11:46:36.172Z,12.40
2022-10-17T11:48:42.469Z,10.88
2022-10-17T11:53:14.388Z,12.20
2022-10-17T11:55:18.938Z,11.68
2022-10-17T11:57:44.621Z,13.10
2022-10-17T11:59:50.666Z,12.63
2022-10-17T12:01:57.473Z,10.75
2022-10-17T12:04:12.566Z,10.35
2022-10-17T12:06:29.474Z,16.27
2022-10-17T12:08:39.785Z,14.68
2022-10-17T12:11:00.761Z,12.77
2022-10-17T12:13:33.470Z,15.82
2022-10-17T12:15:35.249Z,15.40
2022-10-17T12:17:40.922Z,17.40
2022-10-17T12:19:42.403Z,15.35
2022-10-17T12:22:21.006Z,14.15
2022-10-17T12:24:36.608Z,12.43
2022-10-17T12:26:38.138Z,12.13
2022-10-17T12:28:47.759Z,14.93
2022-10-17T12:31:05.912Z,14.60
2022-10-17T12:33:11.431Z,15.10
2022-10-17T12:35:20.828Z,20.08
2022-10-17T12:37:50.476Z,12.18
2022-10-17T12:39:52.187Z,16.95
2022-10-17T12:41:54.332Z,12.60
2022-10-17T12:43:55.984Z,14.73
2022-10-17T12:46:05.029Z,12.13
2022-10-17T12:48:09.922Z,11.70
2022-10-17T12:50:48.837Z,14.02
2022-10-17T12:53:04.473Z,11.35
2022-10-17T12:55:13.979Z,16.55
2022-10-17T12:59:29.336Z,14.07
2022-10-17T13:01:32.918Z,13.77
2022-10-17T13:03:44.488Z,10.90
2022-10-17T13:05:50.654Z,11.50
2022-10-17T13:07:53.449Z,9.57
2022-10-17T13:09:55.246Z,16.77
2022-10-17T13:11:59.877Z,11.43
2022-10-17T13:14:09.032Z,16.63
2022-10-17T13:16:28.477Z,12.85
2022-10-17T13:18:30.400Z,11.93
2022-10-17T13:20:32.575Z,10.85
2022-10-17T13:22:34.090Z,12.13
2022-10-17T13:24:36.666Z,12.65
2022-10-17T13:26:38.144Z,10.48
2022-10-17T13:28:39.930Z,11.65
2022-10-17T13:30:46.541Z,15.52
2022-10-17T13:32:48.416Z,13.32
2022-10-17T13:35:17.204Z,10.48
2022-10-17T13:37:18.887Z,15.85
2022-10-17T13:39:38.244Z,10.90
2022-10-17T13:41:41.169Z,11.77
2022-10-17T13:43:42.920Z,15.38
2022-10-17T13:45:53.095Z,15.00
2022-10-17T13:47:54.985Z,10.55
2022-10-17T13:49:58.436Z,16.13
2022-10-17T13:52:02.222Z,14.57
2022-10-17T13:54:31.532Z,32.55
2022-10-17T13:56:33.237Z,26.50
2022-10-17T13:58:43.293Z,39.03
2022-10-17T14:00:45.857Z,29.92
2022-10-17T14:02:48.477Z,12.40
2022-10-17T14:05:19.331Z,17.38
2022-10-17T14:08:12.431Z,24.23
2022-10-17T14:10:26.250Z,22.40
2022-10-17T14:12:27.779Z,27.40
2022-10-17T14:14:34.554Z,21.65
2022-10-17T14:16:44.081Z,14.48
2022-10-17T14:18:49.469Z,17.15
2022-10-17T14:23:36.212Z,22.40
2022-10-17T14:25:39.798Z,22.65
2022-10-17T14:28:02.435Z,24.38
2022-10-17T14:30:07.172Z,21.23
2022-10-17T14:32:13.742Z,43.35
2022-10-17T14:34:25.046Z,50.63
2022-10-17T14:36:42.694Z,31.75
2022-10-17T14:38:50.094Z,24.30
2022-10-17T14:41:01.051Z,17.23
2022-10-17T14:43:21.925Z,21.52
2022-10-17T14:45:36.843Z,22.20
2022-10-17T14:47:43.764Z,15.63
2022-10-17T14:49:50.309Z,15.55
2022-10-17T14:52:18.334Z,16.63
2022-10-17T14:54:26.841Z,21.65
2022-10-17T14:56:36.678Z,27.33
2022-10-17T14:58:38.127Z,28.38
2022-10-17T15:00:39.995Z,39.05
2022-10-17T15:02:41.930Z,40.38
2022-10-17T15:04:43.391Z,41.28
2022-10-17T15:06:45.270Z,40.83
2022-10-17T15:08:46.775Z,36.42
2022-10-17T15:10:49.811Z,23.63
2022-10-17T15:12:57.546Z,24.35
2022-10-17T15:15:00.708Z,19.42
2022-10-17T15:17:02.192Z,14.85
2022-10-17T15:19:03.646Z,24.65
2022-10-17T15:21:33.310Z,57.47
2022-10-17T15:23:34.978Z,63.58
2022-10-17T15:25:36.447Z,49.67
2022-10-17T15:27:38.074Z,41.58
2022-10-17T15:29:39.531Z,35.90
2022-10-17T15:31:41.650Z,33.80
2022-10-17T15:33:45.126Z,38.05
2022-10-17T15:35:46.911Z,38.75
2022-10-17T15:37:48.503Z,28.05
2022-10-17T15:39:53.558Z,19.27
2022-10-17T15:41:55.438Z,74.53
2022-10-17T15:43:57.188Z,71.05
2022-10-17T15:46:00.388Z,49.63
2022-10-17T15:48:06.668Z,34.95
2022-10-17T15:50:11.762Z,20.50
2022-10-17T15:52:13.194Z,21.15
2022-10-17T15:54:14.669Z,15.65
2022-10-17T15:56:29.815Z,16.10
2022-10-17T15:58:36.258Z,18.40
2022-10-17T16:00:37.927Z,17.25
2022-10-17T16:02:39.379Z,16.63
2022-10-17T16:04:41.240Z,16.20
2022-10-17T16:06:43.302Z,16.30
2022-10-17T16:08:46.071Z,11.82
2022-10-17T16:10:47.710Z,19.30
2022-10-17T16:12:50.454Z,17.23
2022-10-17T16:14:52.163Z,19.25
2022-10-17T16:16:53.634Z,22.45
2022-10-17T16:18:55.252Z,31.45
2022-10-17T16:20:56.799Z,53.83
2022-10-17T16:23:00.858Z,27.30
2022-10-17T16:25:10.224Z,27.33
2022-10-17T16:27:11.690Z,23.30
2022-10-17T16:29:13.240Z,23.33
2022-10-17T16:31:19.692Z,24.20
2022-10-17T16:33:21.186Z,29.40
2022-10-17T16:35:33.138Z,24.75
2022-10-17T16:37:38.167Z,27.45
2022-10-17T16:39:39.613Z,86.38
2022-10-17T16:41:41.164Z,321.88
2022-10-17T16:43:42.615Z,590.63
2022-10-17T16:45:44.149Z,771.30
2022-10-17T16:47:46.439Z,784.88
2022-10-17T16:49:48.018Z,604.58
2022-10-17T16:51:49.505Z,412.10
2022-10-17T16:53:54.309Z,117.03
2022-10-17T16:56:05.048Z,43.58
2022-10-17T16:58:06.487Z,44.10
2022-10-17T17:00:08.646Z,56.00
2022-10-17T17:02:12.046Z,115.53
2022-10-17T17:04:13.683Z,97.63
2022-10-17T17:06:19.090Z,103.90
2022-10-17T17:08:20.937Z,100.60
2022-10-17T17:10:22.471Z,80.47
2022-10-17T17:12:24.026Z,76.25
2022-10-17T17:14:26.098Z,83.05
2022-10-17T17:16:29.502Z,98.97
2022-10-17T17:18:31.712Z,95.10
2022-10-17T17:20:33.568Z,78.93
2022-10-17T17:22:35.144Z,80.30
2022-10-17T17:24:36.692Z,69.90
2022-10-17T17:26:38.966Z,74.07
2022-10-17T17:28:41.558Z,69.95
2022-10-17T17:30:43.099Z,66.25
2022-10-17T17:32:44.571Z,82.90
2022-10-17T17:34:46.019Z,96.88
2022-10-17T17:36:47.468Z,102.40
2022-10-17T17:38:50.148Z,101.10
2022-10-17T17:40:52.205Z,75.30
2022-10-17T17:42:53.649Z,75.40
2022-10-17T17:44:55.118Z,76.93
2022-10-17T17:46:56.561Z,89.40
2022-10-17T17:48:58.449Z,92.80
2022-10-17T17:51:05.185Z,87.53
2022-10-17T17:53:07.737Z,72.22
2022-10-17T17:55:09.651Z,69.30
2022-10-17T17:57:11.171Z,84.00
2022-10-17T17:59:13.491Z,91.78
2022-10-17T18:01:20.476Z,81.05
2022-10-17T18:03:22.041Z,72.63
2022-10-17T18:05:24.329Z,57.95
2022-10-17T18:07:25.779Z,50.45
2022-10-17T18:09:27.290Z,51.05
2022-10-17T18:11:28.943Z,43.42
2022-10-17T18:13:30.686Z,40.72
2022-10-17T18:15:32.218Z,39.13
2022-10-17T18:17:34.033Z,44.85
2022-10-17T18:19:35.611Z,55.75
2022-10-17T18:21:37.837Z,57.80
2022-10-17T18:23:45.006Z,40.45
2022-10-17T18:25:55.436Z,59.08
2022-10-17T18:27:56.879Z,51.65
2022-10-17T18:29:58.353Z,54.28
2022-10-17T18:32:00.598Z,36.17
2022-10-17T18:34:02.657Z,36.38
2022-10-17T18:36:07.125Z,52.58
2022-10-17T18:38:08.944Z,41.78
2022-10-17T18:40:10.701Z,49.58
2022-10-17T18:42:12.135Z,43.30
2022-10-17T18:44:13.765Z,38.50
2022-10-17T18:46:17.757Z,42.70
2022-10-17T18:48:19.240Z,45.38
2022-10-17T18:50:22.340Z,42.95
2022-10-17T18:52:24.671Z,50.33
2022-10-17T18:54:26.174Z,47.25
2022-10-17T18:56:27.934Z,54.53
2022-10-17T18:58:29.803Z,68.55
2022-10-17T19:00:31.286Z,57.60
2022-10-17T19:02:35.557Z,131.38
2022-10-17T19:04:39.624Z,101.55
2022-10-17T19:06:41.703Z,83.43
2022-10-17T19:08:44.278Z,78.57
2022-10-17T19:10:45.751Z,78.25
2022-10-17T19:12:47.198Z,88.25
2022-10-17T19:14:53.053Z,56.70
2022-10-17T19:16:54.653Z,46.72
2022-10-17T19:19:05.358Z,47.15
2022-10-17T19:21:11.474Z,41.80
2022-10-17T19:23:13.031Z,40.22
2022-10-17T19:25:14.782Z,42.50
2022-10-17T19:27:16.319Z,41.45
2022-10-17T19:29:18.282Z,41.28
2022-10-17T19:31:27.080Z,45.95
2022-10-17T19:35:35.999Z,60.30
2022-10-17T19:37:37.716Z,61.67
2022-10-17T19:39:39.285Z,58.28
2022-10-17T19:41:42.406Z,47.35
2022-10-17T19:43:44.412Z,41.17
2022-10-17T19:46:00.593Z,34.55
2022-10-17T19:48:02.137Z,39.45
2022-10-17T19:52:10.982Z,42.78
2022-10-17T19:54:12.673Z,45.85
2022-10-17T19:56:14.446Z,49.17
2022-10-17T19:58:16.086Z,55.55
2022-10-17T20:00:17.609Z,47.45
2022-10-17T20:02:19.238Z,57.92
2022-10-17T20:04:21.988Z,50.63
2022-10-17T20:06:23.919Z,60.72
2022-10-17T20:10:27.767Z,48.30
2022-10-17T20:12:29.493Z,48.17
2022-10-17T20:14:31.199Z,44.53
2022-10-17T20:16:36.235Z,38.78
2022-10-17T20:18:38.295Z,34.70
2022-10-17T20:20:39.774Z,32.88
2022-10-17T20:22:41.319Z,34.20
2022-10-17T20:24:42.850Z,35.95
2022-10-17T20:26:45.011Z,36.25
2022-10-17T20:28:47.321Z,36.42
2022-10-17T20:30:48.886Z,35.65
2022-10-17T20:32:55.143Z,37.00
2022-10-17T20:34:56.981Z,39.85
2022-10-17T20:36:58.489Z,38.58
2022-10-17T20:38:59.937Z,42.30
2022-10-17T20:41:07.020Z,36.92
2022-10-17T20:43:10.867Z,34.45
2022-10-17T20:45:12.376Z,33.85
2022-10-17T20:47:26.522Z,40.88
2022-10-17T20:49:34.322Z,39.72
2022-10-17T20:51:36.242Z,36.55
2022-10-17T20:53:38.002Z,38.15
2022-10-17T20:55:40.463Z,37.15
2022-10-17T20:57:41.959Z,43.03
2022-10-17T20:59:43.423Z,38.05
2022-10-17T21:01:46.141Z,39.00
2022-10-17T21:03:48.007Z,39.97
2022-10-17T21:05:49.731Z,36.17
2022-10-17T21:07:51.174Z,43.25
2022-10-17T21:09:52.671Z,61.05
2022-10-17T21:11:56.924Z,54.78
2022-10-17T21:14:06.525Z,44.00
2022-10-17T21:16:10.898Z,44.90
2022-10-17T21:18:12.362Z,43.45
2022-10-17T21:20:13.859Z,34.45
2022-10-17T21:22:15.287Z,35.67
2022-10-17T21:24:19.171Z,33.80
2022-10-17T21:26:21.114Z,33.92
2022-10-17T21:28:22.654Z,35.42
2022-10-17T21:30:24.222Z,32.15
2022-10-17T21:32:33.566Z,35.28
2022-10-17T21:34:47.153Z,35.28
2022-10-17T21:36:48.763Z,34.33
2022-10-17T21:38:51.767Z,34.17
2022-10-17T21:40:55.970Z,38.38
2022-10-17T21:42:57.630Z,33.13
2022-10-17T21:44:59.174Z,37.53
2022-10-17T21:47:00.642Z,34.78
2022-10-17T21:49:02.699Z,35.65
2022-10-17T21:51:06.779Z,35.40
2022-10-17T21:53:08.295Z,39.53
2022-10-17T21:55:09.782Z,37.42
2022-10-17T21:57:11.272Z,36.72
2022-10-17T21:59:12.849Z,37.45
2022-10-17T22:01:19.749Z,40.80
2022-10-17T22:03:21.226Z,38.83
2022-10-17T22:05:22.814Z,36.60
2022-10-17T22:07:24.299Z,40.92
2022-10-17T22:09:26.259Z,37.58
2022-10-17T22:11:31.687Z,37.65
2022-10-17T22:13:33.350Z,42.75
2022-10-17T22:15:34.826Z,44.50
2022-10-17T22:17:36.271Z,79.97
2022-10-17T22:19:37.726Z,47.78
2022-10-17T22:21:39.478Z,85.38
2022-10-17T22:23:42.443Z,59.70
2022-10-17T22:25:44.040Z,35.08
2022-10-17T22:27:45.527Z,40.92
2022-10-17T22:29:46.961Z,30.92
2022-10-17T22:31:48.419Z,53.80
2022-10-17T22:33:50.032Z,79.00
2022-10-17T22:35:51.511Z,37.47
2022-10-17T22:37:53.029Z,62.17
2022-10-17T22:39:54.483Z,72.35
2022-10-17T22:41:55.938Z,59.70
2022-10-17T22:43:57.514Z,38.00
2022-10-17T22:46:01.576Z,35.17
2022-10-17T22:48:03.082Z,33.50
2022-10-17T22:50:04.861Z,29.15
2022-10-17T22:52:06.360Z,29.05
2022-10-17T22:54:07.808Z,32.78
2022-10-17T22:56:16.006Z,36.42
2022-10-17T22:58:17.579Z,38.17
2022-10-17T23:00:19.257Z,36.15
2022-10-17T23:02:20.775Z,32.75
2022-10-17T23:04:22.218Z,35.70
2022-10-17T23:06:24.202Z,30.35
2022-10-17T23:08:26.699Z,35.70
2022-10-17T23:10:28.210Z,34.90
2022-10-17T23:12:30.138Z,29.40
2022-10-17T23:14:31.865Z,31.15
2022-10-17T23:16:33.751Z,31.00
2022-10-17T23:18:36.541Z,32.90
2022-10-17T23:20:38.322Z,33.35
2022-10-17T23:22:39.799Z,31.42
2022-10-17T23:24:41.221Z,35.95
2022-10-17T23:26:42.762Z,34.88
2022-10-17T23:28:44.402Z,36.25
2022-10-17T23:30:46.222Z,36.42
2022-10-17T23:32:47.723Z,36.38
2022-10-17T23:34:49.178Z,35.45
2022-10-17T23:36:52.382Z,40.00
2022-10-17T23:38:56.459Z,36.45
2022-10-17T23:40:59.954Z,34.85
2022-10-17T23:43:01.537Z,42.20
2022-10-17T23:45:03.667Z,44.85
2022-10-17T23:47:05.144Z,36.58
2022-10-17T23:49:06.963Z,33.63
2022-10-17T23:51:09.602Z,42.40
2022-10-17T23:53:11.023Z,37.53
2022-10-17T23:55:12.481Z,42.63
2022-10-17T23:57:13.945Z,41.95
2022-10-17T23:59:15.390Z,43.85
